Updated15/06/2019 11:22pm 
 

Nearby Airport METAR Reports

 

KVSF - Springfield, Vermont, USA
Distance from station: WSW 8mi, 12km
Updated: 06/15/2019 10:54pm
Overcast
Overcast
 Wind from SSW
Wind: SSW 6 mph , 9 km/h
Temperature: 70°F , 21°C
Dew Point: 50°F , 10°C
Humidity: 50%
Barometer: 29.87 inHg , 1011.5 hPa
Clouds: Overcast
Visibility: 10 miles , 16 km
Cloud details: Overcast 5500 ft
2019/06/16 02:54 KVSF 160254Z AUTO 21005KT 10SM OVC055 21/10 A2987 RMK AO2 SLP114 T02110100 55000
KLEB - Lebanon, New Hampshire, USA
Distance from station: N 18mi, 29km
Updated: 06/15/2019 10:53pm
Overcast
Overcast
 Wind from SW
Wind: SW 12 mph , 19 km/h
Temperature: 72°F , 22°C
Dew Point: 50°F , 10°C
Humidity: 47%
Barometer: 29.84 inHg , 1010.5 hPa
Clouds: Overcast
Visibility: 10 miles , 16 km
Cloud details: Overcast 5000 ft
2019/06/16 02:53 KLEB 160253Z AUTO 22010KT 10SM OVC050 22/10 A2984 RMK AO2 SLP097 60000 T02220100 53001
KRUT - Rutland State, Vermont, USA
Distance from station: WNW 31mi, 50km
Updated: 06/15/2019 10:56pm
Overcast
Overcast
 Wind from varies
Wind: varies 7 mph , 11 km/h, Gust: 24 mph , 39 km/h
Temperature: 68°F , 20°C
Dew Point: 54°F , 12°C
Humidity: 60%
Barometer: 29.88 inHg , 1011.9 hPa
Clouds: Overcast
Visibility: 10 miles , 16 km
Cloud details: Mostly cloudy 4000 ft
Mostly cloudy 4900 ft
Overcast 6500 ft
2019/06/16 02:56 KRUT 160256Z AUTO VRB06G21KT 10SM BKN040 BKN049 OVC065 20/12 A2988 RMK AO2 PK WND 22027/0231 SLP109 60000 T02000122 53004 $
 
KEEN - Keene/Dillant, New Hampshire, USA
Distance from station: S 34mi, 55km
Updated: 06/15/2019 10:56pm
Overcast
Overcast
 Wind from SW
Wind: SW 9 mph , 15 km/h
Temperature: 72°F , 22°C
Dew Point: 50°F , 10°C
Humidity: 47%
Barometer: 29.90 inHg , 1012.5 hPa
Clouds: Overcast
Visibility: 10 miles , 16 km
Cloud details: Overcast 6000 ft
2019/06/16 02:56 KEEN 160256Z AUTO 22008KT 10SM OVC060 22/10 A2990 RMK AO2 SLP125 6//// T02220100 53005 PNO $
K1P1 - Plymouth, New Hampshire, USA
Distance from station: NE 42mi, 67km
Updated: 06/15/2019 11:15pm
Overcast
Overcast
 Wind from SW
Wind: SW 3 mph , 6 km/h
Temperature: 72°F , 22°C
Dew Point: 50°F , 10°C
Humidity: 47%
Barometer: 29.83 inHg , 1010.2 hPa
Clouds: Overcast
Visibility: 10 miles , 16 km
Cloud details: Overcast 6000 ft
2019/06/16 03:15 K1P1 160315Z AUTO 23003KT 10SM OVC060 22/10 A2983 RMK AO2 T02170095
KAFN - Jaffrey, New Hampshire, USA
Distance from station: SSE 44mi, 70km
Updated: 06/15/2019 10:52pm
Overcast
Overcast
 Wind from SSW
Wind: SSW 10 mph , 17 km/h
Temperature: 70°F , 21°C
Dew Point: 48°F , 9°C
Humidity: 46%
Barometer: 29.92 inHg , 1013.2 hPa
Clouds: Overcast
Visibility: 10 miles , 16 km
Cloud details: Overcast 6000 ft
2019/06/16 02:52 KAFN 160252Z AUTO 21009KT 180V250 10SM OVC060 21/09 A2992 RMK AO2 SLP131 60000 T02110089 50003
 
KCON - Concord, New Hampshire, USA
Distance from station: ESE 45mi, 73km
Updated: 06/15/2019 10:51pm
Overcast
Overcast
 Wind from WSW
Wind: WSW 9 mph , 15 km/h
Temperature: 72°F , 22°C
Dew Point: 54°F , 12°C
Humidity: 53%
Barometer: 29.87 inHg , 1011.5 hPa
Clouds: Overcast
Visibility: 10 miles , 16 km
Cloud details: Partly cloudy 6000 ft
Mostly cloudy 8000 ft
Overcast 10000 ft
2019/06/16 02:51 KCON 160251Z AUTO 24008KT 10SM SCT060 BKN080 OVC100 22/12 A2987 RMK AO2 SLP112 T02220117 53001
KLCI - Laconia Muni, New Hampshire, USA
Distance from station: ENE 49mi, 80km
Updated: 06/15/2019 10:56pm
Overcast
Overcast
 Wind from SW
Wind: SW 16 mph , 26 km/h, Gust: 24 mph , 39 km/h
Temperature: 72°F , 22°C
Dew Point: 52°F , 11°C
Humidity: 50%
Barometer: 29.85 inHg , 1010.8 hPa
Clouds: Overcast
Visibility: 10 miles , 16 km
Cloud details: Overcast 6000 ft
2019/06/16 02:56 KLCI 160256Z AUTO 22014G21KT 10SM OVC060 22/11 A2985 RMK AO2 SLP107 T02220106 52001
KDDH - Bennington, Vermont, USA
Distance from station: SW 55mi, 89km
Updated: 06/15/2019 10:54pm
Overcast
Overcast
 Wind from calm
Wind: Calm
Temperature: 68°F , 20°C
Dew Point: 52°F , 11°C
Humidity: 56%
Barometer: 29.90 inHg , 1012.5 hPa
Clouds: Overcast
Visibility: 10 miles , 16 km
Cloud details: Overcast 5000 ft
2019/06/16 02:54 KDDH 160254Z AUTO 00000KT 10SM OVC050 20/11 A2990 RMK AO2 SLP119 T02000106 58005
 
K6B0 - Middlebury, Vermont, USA
Distance from station: NW 56mi, 90km
Updated: 06/15/2019 11:15pm
Overcast
Overcast
 Wind from SW
Wind: SW 8 mph , 13 km/h, Gust: 16 mph , 26 km/h
Temperature: 66°F , 19°C
Dew Point: 54°F , 12°C
Humidity: 64%
Barometer: 29.87 inHg , 1011.5 hPa
Clouds: Overcast
Visibility: 10 miles , 16 km
Cloud details: Overcast 3500 ft
2019/06/16 03:15 K6B0 160315Z AUTO 22007G14KT 180V270 10SM OVC035 19/12 A2987 RMK AO2 T01920124
KMHT - Manchester, New Hampshire, USA
Distance from station: ESE 56mi, 90km
Updated: 06/15/2019 10:53pm
Mostly cloudy
Mostly cloudy
 Wind from SW
Wind: SW 10 mph , 17 km/h, Gust: 17 mph , 28 km/h
Temperature: 73°F , 23°C
Dew Point: 52°F , 11°C
Humidity: 47%
Barometer: 29.86 inHg , 1011.2 hPa
Clouds: Mostly cloudy
Visibility: 10 miles , 16 km
Cloud details: Mostly cloudy 15000 ft
2019/06/16 02:53 KMHT 160253Z 23009G15KT 10SM BKN150 23/11 A2986 RMK AO2 SLP120 T02330106 51001
KORE - Orange, Massachusetts, USA
Distance from station: S 56mi, 90km
Updated: 06/15/2019 10:52pm
Overcast
Overcast
 Wind from SSW
Wind: SSW 8 mph , 13 km/h
Temperature: 72°F , 22°C
Dew Point: 48°F , 9°C
Humidity: 44%
Barometer: 29.92 inHg , 1013.2 hPa
Clouds: Overcast
Visibility: 10 miles , 16 km
Cloud details: Overcast 6500 ft
2019/06/16 02:52 KORE 160252Z AUTO 20007KT 10SM OVC065 22/09 A2992 RMK AO2 SLP130 60000 T02170094 50006
 
KMPV - Montpelier/Barre, Vermont, USA
Distance from station: N 58mi, 93km
Updated: 06/15/2019 10:51pm
Light rain, Overcast
Light rain, Overcast
 Wind from WSW
Wind: WSW 8 mph , 13 km/h, Gust: 24 mph , 39 km/h
Temperature: 66°F , 19°C
Dew Point: 52°F , 11°C
Humidity: 60%
Barometer: 29.87 inHg , 1011.5 hPa
Summary: Light rain
Clouds: Overcast
Visibility: 10 miles , 16 km
Cloud details: Few Clouds 3500 ft
Mostly cloudy 8000 ft
Overcast 9500 ft
2019/06/16 02:51 KMPV 160251Z AUTO 25007G21KT 210V270 10SM -RA FEW035 BKN080 OVC095 19/11 A2987 RMK AO2 PK WND 22037/0154 SLP110 P0000 60000 T01890111 55003
KASH - Nashua/Boire Fld, New Hampshire, USA
Distance from station: SE 59mi, 95km
Updated: 06/15/2019 10:56pm
Clear
Clear
 Wind from WSW
Wind: WSW 9 mph , 15 km/h
Temperature: 73°F , 23°C
Dew Point: 52°F , 11°C
Humidity: 47%
Barometer: 29.89 inHg , 1012.2 hPa
Clouds: Clear
Visibility: 10 miles , 16 km
2019/06/16 02:56 KASH 160256Z AUTO 24008KT 170V280 10SM CLR 23/11 A2989 RMK AO2 SLP129 T02280111 50002
KAQW - North Adams, Massachusetts, USA
Distance from station: SW 62mi, 99km
Updated: 06/15/2019 10:52pm
Overcast
Overcast
 Wind from calm
Wind: Calm
Temperature: 63°F , 17°C
Dew Point: 59°F , 15°C
Humidity: 88%
Barometer: 29.91 inHg , 1012.9 hPa
Clouds: Overcast
Visibility: 10 miles , 16 km
Cloud details: Overcast 5500 ft
2019/06/16 02:52 KAQW 160252Z AUTO 00000KT 10SM OVC055 17/15 A2991 RMK AO2 RAB11E26 SLP127 P0000 60000 T01670150 56003
 
KGFL - Glens Falls, New York, USA
Distance from station: W 63mi, 101km
Updated: 06/15/2019 10:53pm
Overcast
Overcast
 Wind from SW
Wind: SW 10 mph , 17 km/h
Temperature: 66°F , 19°C
Dew Point: 55°F , 13°C
Humidity: 68%
Barometer: 29.87 inHg , 1011.5 hPa
Clouds: Overcast
Visibility: 10 miles , 16 km
Cloud details: Mostly cloudy 4800 ft
Overcast 6500 ft
2019/06/16 02:53 KGFL 160253Z AUTO 23009KT 10SM BKN048 OVC065 19/13 A2987 RMK AO2 SLP116 T01940128 50006
KFIT - Fitchburg, Massachusetts, USA
Distance from station: SSE 65mi, 105km
Updated: 06/15/2019 10:52pm
Mostly cloudy
Mostly cloudy
 Wind from SW
Wind: SW 6 mph , 9 km/h
Temperature: 72°F , 22°C
Dew Point: 52°F , 11°C
Humidity: 50%
Barometer: 29.91 inHg , 1012.9 hPa
Clouds: Mostly cloudy
Visibility: 10 miles , 16 km
Cloud details: Mostly cloudy 6500 ft
Mostly cloudy 12000 ft
2019/06/16 02:52 KFIT 160252Z AUTO 23005KT 10SM BKN065 BKN120 22/11 A2991 RMK AO2 SLP128 T02220111 50004
KDAW - Rochester, New Hampshire, USA
Distance from station: E 73mi, 118km
Updated: 06/15/2019 10:51pm
Few Clouds
Few Clouds
 Wind from varies
Wind: varies 6 mph , 9 km/h
Temperature: 70°F , 21°C
Dew Point: 54°F , 12°C
Humidity: 57%
Barometer: 29.85 inHg , 1010.8 hPa
Clouds: Few Clouds
Visibility: 10 miles , 16 km
Cloud details: Few Clouds 7500 ft
2019/06/16 02:51 KDAW 160251Z AUTO VRB05KT 10SM FEW075 21/12 A2985 RMK AO2 SLP104 T02060117 58002
 
K1V4 - St. Johnsbury, Vermont, USA
Distance from station: NNE 74mi, 119km
Updated: 06/15/2019 10:54pm

 
Temperature: 66°F , 19°C
Dew Point: 54°F , 12°C
Humidity: 64%
Barometer: 29.80 inHg , 1009.1 hPa
2019/06/16 02:54 K1V4 160254Z AUTO 19/12 A2980 RMK AO1 SLP085 T01940122 55003
KLWM - Lawrence, Massachusetts, USA
Distance from station: SE 77mi, 124km
Updated: 06/15/2019 10:54pm
Clear
Clear
 Wind from SSW
Wind: SSW 14 mph , 22 km/h
Temperature: 70°F , 21°C
Dew Point: 52°F , 11°C
Humidity: 53%
Barometer: 29.90 inHg , 1012.5 hPa
Clouds: Clear
Visibility: 10 miles , 16 km
2019/06/16 02:54 KLWM 160254Z AUTO 21012KT 10SM CLR 21/11 A2990 RMK AO2 SLP124 T02110111 50000 $



Flag Counter
free counter page views since 4/29/2009